METAR AND TAF INFORMATION
METAR FOR DTTJ
ADDS - METARS form results

(1909 UTC 05 March 2021)
Data provider http://aviationweather.gov/metar/data/
 
METAR text: DTTJ 051900Z 03015KT 8000 NSC 16/13 Q1015 NOSIG
Conditions at: DTTJ (DJERBA MELLITA , TN) observed 1900 UTC 05 March 2021
Temperature: 16.0°C (61°F)
Dewpoint: 13.0°C (55°F) [RH = 82%]
Pressure (altimeter): 29.97 inches Hg (1015.0 mb)
Winds: from the NNE (30 degrees) at 17 MPH (15 knots; 7.7 m/s)
Visibility: 5 miles ( 8 km)
Ceiling: at least 12,000 feet AGL
Clouds: sky clear below 12,000 feet AGL
Weather: no significant weather observed at this time

METAR text: DTTJ 051830Z 04012KT CAVOK 16/13 Q1015 NOSIG
Conditions at: DTTJ (DJERBA MELLITA , TN) observed 1830 UTC 05 March 2021
Temperature: 16.0°C (61°F)
Dewpoint: 13.0°C (55°F) [RH = 82%]
Pressure (altimeter): 29.97 inches Hg (1015.0 mb)
Winds: from the NE (40 degrees) at 14 MPH (12 knots; 6.2 m/s)
Visibility: 6 or more miles (10+ km)
Ceiling: ceiling and visibility are OK
Clouds: unknown
Weather: no significant weather observed at this time

Forecast for: DTTJ (DJERBA MELLITA , TN)
Text: TAF DTTJ 051700Z 0518/0618 03016KT CAVOK
Forecast period: 1800 to 1900 UTC 05 March 2021
Forecast type: FROM: standard forecast or significant change
Winds: from the NNE (30 degrees) at 18 MPH (16 knots; 8.2 m/s)
Visibility: 6 or more miles (10+ km)
Ceiling: unknown
Clouds: missing
Weather: NSW  (no significant weather)
Text: BECMG 0519/0521 36006KT
Forecast period: 1900 UTC 05 March 2021 to 1800 UTC 06 March 2021
Forecast type: BECOMING: Conditions expected to become as follows by 2100 UTC 05 March 2021
Winds: from the N (360 degrees) at 7 MPH (6 knots; 3.1 m/s)
Visibility: 6 or more miles (10+ km)
Ceiling: unknown
Clouds: missing
Weather: NSW  (no significant weather)

 AIRPORT MAP

 RUNWAY INFORMATION
Runway 09 Runway length 10171 ft Runway width 148 ft
Runway elevation 9 ft Runway displaced threshold 0 ft Runway heading 88
Runway 27 Runway length 10171 ft Runway width 148 ft
Runway elevation 18 ft Runway displaced threshold 0 ft Runway heading 268

 AIRPORT FREQUENCIES
Type APP Name DJERBA APP Frequency 120.3 MHZ
Type TWR Name DJERBA TWR Frequency 118.15 MHZ

 AIRPORT NEAR NAVIGATION AIDS
Type VOR-DME Name Djerba Frequency 112200 KHZ



Powered by Virtual Airlines Manager [v2.6.2]

Hosted by Utixo.it